Time;durP1;ratioP1;P1;durP2;ratioP2;P2;SDS_P1;SDS_P2;PMS_P1;PMS_P2;Temp;Humidity;BMP_temperature;BMP_pressure;BME280_temperature;BME280_humidity;BME280_pressure;Samples;Min_cycle;Max_cycle;Signal;HPM_P1;HPM_P2
2022/03/22 00:01:05;;;;;;;15.13;10.57;;;;;;;;;;5056332;28;20417;-67
2022/03/22 00:03:31;;;;;;;12.23;9.50;;;;;;;;;;5056295;28;20409;-66
2022/03/22 00:05:57;;;;;;;18.87;11.40;;;;;;;;;;5056231;28;20402;-68
2022/03/22 00:08:23;;;;;;;19.40;11.00;;;;;;;;;;5055911;28;20552;-67
2022/03/22 00:10:49;;;;;;;16.63;10.63;;;;;;;;;;5056050;28;20499;-66
2022/03/22 00:13:16;;;;;;;18.33;11.60;;;;;;;;;;5055752;28;20449;-65
2022/03/22 00:15:42;;;;;;;18.80;10.87;;;;;;;;;;5055879;28;20849;-65
2022/03/22 00:18:09;;;;;;;13.13;9.40;;;;;;;;;;5055720;28;21015;-67
2022/03/22 00:20:35;;;;;;;17.23;11.00;;;;;;;;;;5055740;28;20417;-68
2022/03/22 00:23:01;;;;;;;18.87;11.40;;;;;;;;;;5055682;28;20409;-68
2022/03/22 00:25:27;;;;;;;15.53;10.30;;;;;;;;;;5055595;28;20518;-70
2022/03/22 00:27:53;;;;;;;18.53;10.80;;;;;;;;;;5055669;28;20414;-68
2022/03/22 00:30:25;;;;;;;17.93;11.07;;;;;;;;;;5055583;28;20476;-69
2022/03/22 00:32:53;;;;;;;16.03;11.30;;;;;;;;;;5055417;28;20435;-65
2022/03/22 00:35:20;;;;;;;16.73;10.20;;;;;;;;;;5055466;28;20496;-63
2022/03/22 00:37:49;;;;;;;16.43;10.00;;;;;;;;;;5055463;28;20758;-66
2022/03/22 00:40:17;;;;;;;17.90;10.03;;;;;;;;;;5055392;28;20432;-67
2022/03/22 00:42:46;;;;;;;15.37;10.87;;;;;;;;;;5054093;28;20417;-67
2022/03/22 00:45:12;;;;;;;14.07;10.03;;;;;;;;;;5054607;28;20897;-67
2022/03/22 00:47:38;;;;;;;17.27;10.27;;;;;;;;;;5055381;28;20533;-63
2022/03/22 00:50:04;;;;;;;17.43;10.10;;;;;;;;;;5055205;28;20893;-65
2022/03/22 00:52:32;;;;;;;15.93;11.33;;;;;;;;;;5055246;28;20491;-64
2022/03/22 00:54:58;;;;;;;14.10;9.80;;;;;;;;;;5055016;28;20878;-64
2022/03/22 00:57:24;;;;;;;19.40;11.47;;;;;;;;;;5053911;28;20409;-63
2022/03/22 01:00:02;;;;;;;16.87;10.20;;;;;;;;;;5054965;28;20966;-63
2022/03/22 01:02:28;;;;;;;17.47;10.03;;;;;;;;;;5053801;28;20440;-64
2022/03/22 01:04:56;;;;;;;15.30;10.93;;;;;;;;;;5055098;28;20939;-63
2022/03/22 01:07:22;;;;;;;14.10;10.00;;;;;;;;;;5054604;28;20563;-65
2022/03/22 01:09:48;;;;;;;16.87;10.50;;;;;;;;;;5054713;28;20437;-63
2022/03/22 01:12:15;;;;;;;18.03;10.60;;;;;;;;;;5054759;28;20406;-63
2022/03/22 01:14:42;;;;;;;15.47;10.17;;;;;;;;;;5054589;28;20793;-64
2022/03/22 01:17:08;;;;;;;16.30;11.13;;;;;;;;;;5053475;28;20446;-63
2022/03/22 01:19:35;;;;;;;15.47;10.80;;;;;;;;;;5054552;28;20490;-63
2022/03/22 01:22:01;;;;;;;16.03;10.13;;;;;;;;;;5054653;28;20742;-63
2022/03/22 01:24:27;;;;;;;16.37;11.20;;;;;;;;;;5054588;28;20407;-64
2022/03/22 01:26:53;;;;;;;13.80;10.03;;;;;;;;;;5054482;28;20772;-64
2022/03/22 01:29:19;;;;;;;16.43;10.97;;;;;;;;;;5054459;28;20405;-63
2022/03/22 01:31:45;;;;;;;18.43;10.10;;;;;;;;;;5054361;28;20403;-63
2022/03/22 01:34:11;;;;;;;13.93;9.93;;;;;;;;;;5054302;28;20424;-63
2022/03/22 01:36:38;;;;;;;17.73;11.27;;;;;;;;;;5053173;28;20410;-63
2022/03/22 01:39:04;;;;;;;18.87;11.40;;;;;;;;;;5054202;28;20550;-70
2022/03/22 01:41:30;;;;;;;15.50;10.57;;;;;;;;;;5054222;28;20880;-63
2022/03/22 01:43:56;;;;;;;16.37;10.60;;;;;;;;;;5054222;28;20413;-65
2022/03/22 01:46:27;;;;;;;12.93;10.00;;;;;;;;;;5052868;28;20410;-64
2022/03/22 01:48:53;;;;;;;16.13;10.10;;;;;;;;;;5054140;28;20414;-63
2022/03/22 01:51:23;;;;;;;17.37;11.30;;;;;;;;;;5053990;28;20426;-67
2022/03/22 01:53:49;;;;;;;18.13;11.60;;;;;;;;;;5053878;28;20417;-64
2022/03/22 01:56:16;;;;;;;15.83;10.70;;;;;;;;;;5053845;28;20423;-64
2022/03/22 01:58:41;;;;;;;16.90;11.17;;;;;;;;;;5053009;28;20518;-64
2022/03/22 02:06:38;;;;;;;15.60;9.90;;;;;;;;;;5053751;28;20806;-64
2022/03/22 02:09:04;;;;;;;15.50;10.63;;;;;;;;;;5053679;28;20487;-64
2022/03/22 02:11:31;;;;;;;15.63;10.47;;;;;;;;;;5053651;28;20409;-64
2022/03/22 02:13:57;;;;;;;13.67;9.70;;;;;;;;;;5053501;28;20426;-64
2022/03/22 02:16:23;;;;;;;16.17;11.53;;;;;;;;;;5053388;28;20405;-65
2022/03/22 02:18:52;;;;;;;17.67;10.80;;;;;;;;;;5053445;28;20959;-63
2022/03/22 02:21:19;;;;;;;15.87;10.27;;;;;;;;;;5053437;28;20870;-64
2022/03/22 02:23:52;;;;;;;15.83;10.07;;;;;;;;;;5047635;28;20917;-64
2022/03/22 02:26:19;;;;;;;23.10;10.90;;;;;;;;;;5031915;28;20434;-65
2022/03/22 02:28:45;;;;;;;17.30;10.70;;;;;;;;;;5031513;28;20399;-63
2022/03/22 02:31:13;;;;;;;19.03;10.77;;;;;;;;;;5031146;28;20477;-65
2022/03/22 02:33:43;;;;;;;15.50;10.50;;;;;;;;;;5031088;28;20395;-66
2022/03/22 02:36:09;;;;;;;17.47;11.17;;;;;;;;;;5030980;28;20503;-64
2022/03/22 02:38:35;;;;;;;17.53;11.20;;;;;;;;;;5030957;28;21042;-65
2022/03/22 02:41:01;;;;;;;15.07;10.03;;;;;;;;;;5030946;28;20993;-64
2022/03/22 02:43:27;;;;;;;17.10;11.00;;;;;;;;;;5030912;28;20502;-64
2022/03/22 02:45:53;;;;;;;18.00;11.13;;;;;;;;;;5032904;28;20403;-63
2022/03/22 02:48:19;;;;;;;15.07;9.23;;;;;;;;;;5033117;28;20410;-63
2022/03/22 02:50:46;;;;;;;14.47;9.97;;;;;;;;;;5033074;28;20414;-63
2022/03/22 02:53:12;;;;;;;18.60;11.37;;;;;;;;;;5032924;28;20409;-63
2022/03/22 02:55:38;;;;;;;16.03;10.07;;;;;;;;;;5032964;28;20430;-63
2022/03/22 02:58:04;;;;;;;14.80;11.27;;;;;;;;;;5033004;28;20402;-70
2022/03/22 03:00:30;;;;;;;17.20;11.10;;;;;;;;;;5032972;28;20410;-68
2022/03/22 03:02:56;;;;;;;16.63;11.03;;;;;;;;;;5031704;28;20424;-69
2022/03/22 03:05:23;;;;;;;17.30;10.37;;;;;;;;;;5031666;28;20948;-69
2022/03/22 03:07:50;;;;;;;19.20;10.47;;;;;;;;;;5032612;28;20457;-69
2022/03/22 03:10:16;;;;;;;14.80;10.43;;;;;;;;;;5032619;28;20821;-69
2022/03/22 03:12:42;;;;;;;16.33;11.30;;;;;;;;;;5032831;28;20430;-69
2022/03/22 03:15:08;;;;;;;17.67;11.33;;;;;;;;;;5032772;28;20416;-68
2022/03/22 03:17:34;;;;;;;18.20;11.63;;;;;;;;;;5032876;28;20398;-68
2022/03/22 03:20:01;;;;;;;17.40;11.53;;;;;;;;;;5032627;28;20471;-71
2022/03/22 03:22:27;;;;;;;20.53;11.67;;;;;;;;;;5032625;28;20781;-69
2022/03/22 03:24:53;;;;;;;17.97;11.40;;;;;;;;;;5032657;28;20902;-70
2022/03/22 03:27:22;;;;;;;16.37;10.43;;;;;;;;;;5032625;28;20903;-69
2022/03/22 03:29:48;;;;;;;15.60;10.60;;;;;;;;;;5031458;28;20478;-70
2022/03/22 03:32:14;;;;;;;19.43;11.03;;;;;;;;;;5032681;28;20416;-71
2022/03/22 03:34:40;;;;;;;16.97;10.77;;;;;;;;;;5032475;28;20972;-70
2022/03/22 03:37:06;;;;;;;17.13;10.20;;;;;;;;;;5032592;28;20417;-71
2022/03/22 03:39:33;;;;;;;19.40;10.80;;;;;;;;;;5032548;28;20486;-67
2022/03/22 03:42:01;;;;;;;17.90;10.13;;;;;;;;;;5032694;28;20436;-68
2022/03/22 03:47:16;;;;;;;21.43;11.00;;;;;;;;;;5032735;28;20488;-64
2022/03/22 03:49:44;;;;;;;18.20;11.40;;;;;;;;;;5032696;28;20411;-66
2022/03/22 03:52:11;;;;;;;20.83;11.50;;;;;;;;;;5032455;28;20407;-66
2022/03/22 03:54:38;;;;;;;18.03;11.60;;;;;;;;;;5032633;28;20416;-64
2022/03/22 03:57:04;;;;;;;14.73;11.13;;;;;;;;;;5031203;28;20450;-67
2022/03/22 03:59:30;;;;;;;17.80;11.23;;;;;;;;;;5032396;28;21019;-63
2022/03/22 04:01:57;;;;;;;16.57;10.77;;;;;;;;;;5032360;28;20411;-66
2022/03/22 04:04:23;;;;;;;17.37;11.67;;;;;;;;;;5032583;28;20412;-65
2022/03/22 04:06:49;;;;;;;15.13;10.43;;;;;;;;;;5032198;28;20466;-65
2022/03/22 04:09:15;;;;;;;16.17;11.10;;;;;;;;;;5031078;28;20481;-64
2022/03/22 04:11:41;;;;;;;15.63;11.50;;;;;;;;;;5032377;28;20420;-63
2022/03/22 04:14:08;;;;;;;15.60;11.00;;;;;;;;;;5032266;28;20942;-65
2022/03/22 04:16:34;;;;;;;17.23;11.10;;;;;;;;;;5032285;28;20856;-65
2022/03/22 04:19:00;;;;;;;21.03;10.60;;;;;;;;;;5032326;28;20973;-64
2022/03/22 04:21:27;;;;;;;19.90;12.20;;;;;;;;;;5034420;28;20395;-65
2022/03/22 04:23:53;;;;;;;25.60;11.57;;;;;;;;;;5035899;28;20414;-64
2022/03/22 04:26:19;;;;;;;17.93;12.03;;;;;;;;;;5035736;28;20408;-64
2022/03/22 04:34:14;;;;;;;20.57;11.60;;;;;;;;;;5035552;28;20796;-65
2022/03/22 04:36:40;;;;;;;19.63;11.77;;;;;;;;;;5035632;28;20403;-66
2022/03/22 04:39:06;;;;;;;18.87;11.77;;;;;;;;;;5035554;28;20467;-67
2022/03/22 04:41:32;;;;;;;18.67;11.70;;;;;;;;;;5035491;28;20931;-64
2022/03/22 04:43:58;;;;;;;17.20;11.33;;;;;;;;;;5035539;28;20487;-65
2022/03/22 04:46:25;;;;;;;19.50;12.13;;;;;;;;;;5035541;28;20411;-68
2022/03/22 04:48:52;;;;;;;22.47;12.67;;;;;;;;;;5035379;28;20446;-70
2022/03/22 04:56:47;;;;;;;15.90;11.00;;;;;;;;;;5035567;28;20406;-67
2022/03/22 04:59:14;;;;;;;19.73;12.20;;;;;;;;;;5035193;28;20572;-69
2022/03/22 05:01:42;;;;;;;21.73;12.60;;;;;;;;;;5035426;28;20482;-65
2022/03/22 05:04:08;;;;;;;19.93;12.10;;;;;;;;;;5033640;28;20443;-66
2022/03/22 05:06:37;;;;;;;18.00;12.10;;;;;;;;;;5034152;28;20410;-66
2022/03/22 05:09:03;;;;;;;20.30;11.93;;;;;;;;;;5034572;28;20825;-65
2022/03/22 05:11:30;;;;;;;21.07;11.90;;;;;;;;;;5034879;28;20404;-66
2022/03/22 05:13:57;;;;;;;21.70;12.27;;;;;;;;;;5035092;28;20426;-65
2022/03/22 05:16:26;;;;;;;18.80;11.30;;;;;;;;;;5035009;28;20405;-64
2022/03/22 05:18:52;;;;;;;17.70;11.63;;;;;;;;;;5034824;28;20475;-64
2022/03/22 05:21:19;;;;;;;17.57;11.60;;;;;;;;;;5034814;28;20403;-65
2022/03/22 05:23:45;;;;;;;23.80;13.07;;;;;;;;;;5034719;28;20454;-65
2022/03/22 05:26:12;;;;;;;20.40;12.67;;;;;;;;;;5034733;28;20465;-69
2022/03/22 05:28:39;;;;;;;16.83;11.60;;;;;;;;;;5033559;28;20415;-69
2022/03/22 05:31:05;;;;;;;21.03;12.30;;;;;;;;;;5034462;28;20426;-71
2022/03/22 05:33:32;;;;;;;21.60;11.20;;;;;;;;;;5034602;28;20418;-68
2022/03/22 05:35:58;;;;;;;20.43;12.43;;;;;;;;;;5034570;28;20451;-71
2022/03/22 05:38:25;;;;;;;21.27;12.47;;;;;;;;;;5034489;28;20783;-70
2022/03/22 05:40:51;;;;;;;18.43;12.03;;;;;;;;;;5034430;28;20436;-71
2022/03/22 05:43:18;;;;;;;16.20;11.63;;;;;;;;;;5034431;28;20499;-71
2022/03/22 05:45:48;;;;;;;18.73;11.10;;;;;;;;;;5034340;28;20470;-68
2022/03/22 05:48:18;;;;;;;20.57;11.97;;;;;;;;;;5034345;28;20406;-74
2022/03/22 05:50:44;;;;;;;21.37;12.27;;;;;;;;;;5034237;28;20510;-68
2022/03/22 05:53:10;;;;;;;21.87;12.90;;;;;;;;;;5034297;28;20805;-68
2022/03/22 05:55:36;;;;;;;20.50;12.70;;;;;;;;;;5032995;28;20423;-72
2022/03/22 05:58:03;;;;;;;19.60;12.40;;;;;;;;;;5034089;28;20408;-70
2022/03/22 06:00:29;;;;;;;21.30;13.07;;;;;;;;;;5034293;28;20520;-74
2022/03/22 06:02:55;;;;;;;27.97;14.00;;;;;;;;;;5034185;28;20404;-72
2022/03/22 06:05:21;;;;;;;19.17;12.77;;;;;;;;;;5033989;28;20408;-68
2022/03/22 06:07:47;;;;;;;19.10;12.13;;;;;;;;;;5033730;28;20513;-71
2022/03/22 06:10:13;;;;;;;18.47;12.07;;;;;;;;;;5033773;28;20453;-70
2022/03/22 06:12:47;;;;;;;17.47;12.30;;;;;;;;;;5033833;28;20408;-72
2022/03/22 06:15:20;;;;;;;22.03;12.60;;;;;;;;;;5033789;28;20420;-71
2022/03/22 06:17:49;;;;;;;22.47;12.63;;;;;;;;;;5032607;28;20427;-71
2022/03/22 06:20:16;;;;;;;20.73;13.10;;;;;;;;;;5033724;28;20560;-65
2022/03/22 06:22:43;;;;;;;19.17;12.57;;;;;;;;;;5033909;28;20406;-71
2022/03/22 06:25:10;;;;;;;20.83;13.37;;;;;;;;;;5033607;28;20407;-70
2022/03/22 06:27:36;;;;;;;18.73;12.97;;;;;;;;;;5033601;28;20450;-70
2022/03/22 06:30:03;;;;;;;20.30;12.73;;;;;;;;;;5033618;28;20525;-68
2022/03/22 06:32:29;;;;;;;22.93;13.40;;;;;;;;;;5032254;28;20502;-69
2022/03/22 06:34:55;;;;;;;18.03;12.10;;;;;;;;;;5033570;28;20399;-67
2022/03/22 06:37:21;;;;;;;20.10;13.17;;;;;;;;;;5033520;28;20874;-68
2022/03/22 06:39:47;;;;;;;21.90;14.20;;;;;;;;;;5033188;28;20474;-69
2022/03/22 06:42:14;;;;;;;19.50;12.93;;;;;;;;;;5033548;28;20410;-65
2022/03/22 06:44:40;;;;;;;18.60;12.20;;;;;;;;;;5032754;28;20875;-69
2022/03/22 06:47:07;;;;;;;22.10;13.53;;;;;;;;;;5033405;28;20417;-69
2022/03/22 06:49:33;;;;;;;20.00;12.93;;;;;;;;;;5033354;28;20415;-69
2022/03/22 06:51:59;;;;;;;19.17;13.43;;;;;;;;;;5033248;28;20406;-69
2022/03/22 06:54:26;;;;;;;23.20;14.00;;;;;;;;;;5031863;28;20416;-68
2022/03/22 06:56:52;;;;;;;20.47;12.67;;;;;;;;;;5033170;28;20406;-67
2022/03/22 06:59:18;;;;;;;23.60;14.10;;;;;;;;;;5033170;28;20472;-68
2022/03/22 07:01:44;;;;;;;22.63;14.30;;;;;;;;;;5033226;28;20411;-69
2022/03/22 07:04:10;;;;;;;19.17;13.67;;;;;;;;;;5033158;28;20420;-67
2022/03/22 07:06:36;;;;;;;20.03;13.87;;;;;;;;;;5032780;28;20416;-69
2022/03/22 07:09:02;;;;;;;23.20;14.17;;;;;;;;;;5033003;28;20452;-68
2022/03/22 07:14:13;;;;;;;24.53;14.30;;;;;;;;;;5033144;28;20468;-66
2022/03/22 07:16:39;;;;;;;23.53;14.80;;;;;;;;;;5032956;28;20878;-70
2022/03/22 07:19:05;;;;;;;21.10;14.70;;;;;;;;;;5032922;28;20493;-69
2022/03/22 07:21:31;;;;;;;23.07;13.90;;;;;;;;;;5032949;28;20419;-69
2022/03/22 07:23:57;;;;;;;24.70;14.83;;;;;;;;;;5031674;28;20752;-71
2022/03/22 07:26:23;;;;;;;23.27;14.87;;;;;;;;;;5032856;28;20920;-70
2022/03/22 07:28:49;;;;;;;24.30;15.23;;;;;;;;;;5031690;28;20415;-70
2022/03/22 07:31:15;;;;;;;24.40;15.40;;;;;;;;;;5032942;28;20800;-70
2022/03/22 07:33:41;;;;;;;26.70;15.60;;;;;;;;;;5032981;28;20412;-68
2022/03/22 07:36:08;;;;;;;24.03;15.50;;;;;;;;;;5031482;28;20509;-69
2022/03/22 07:38:34;;;;;;;26.60;16.00;;;;;;;;;;5032692;28;20458;-70
2022/03/22 07:41:00;;;;;;;27.33;16.50;;;;;;;;;;5032925;28;20443;-68
2022/03/22 07:43:28;;;;;;;27.33;16.60;;;;;;;;;;5032788;28;20400;-69
2022/03/22 07:45:55;;;;;;;26.27;16.93;;;;;;;;;;5032814;28;20407;-69
2022/03/22 07:48:21;;;;;;;30.37;16.47;;;;;;;;;;5032648;28;20416;-65
2022/03/22 07:53:31;;;;;;;21.20;15.10;;;;;;;;;;5032924;28;20459;-69
2022/03/22 07:55:57;;;;;;;32.80;17.83;;;;;;;;;;5035619;28;20858;-70
2022/03/22 07:58:23;;;;;;;26.90;15.90;;;;;;;;;;5036374;28;20548;-67
2022/03/22 08:00:49;;;;;;;27.90;15.90;;;;;;;;;;5036512;28;20882;-68
2022/03/22 08:03:18;;;;;;;25.50;16.17;;;;;;;;;;5036462;28;20406;-68
2022/03/22 08:05:47;;;;;;;23.30;15.53;;;;;;;;;;5036405;28;20406;-68
2022/03/22 08:08:14;;;;;;;31.27;17.17;;;;;;;;;;5036035;28;20455;-68
2022/03/22 08:10:40;;;;;;;32.33;18.50;;;;;;;;;;5036138;28;20517;-69
2022/03/22 08:13:06;;;;;;;24.70;15.20;;;;;;;;;;5036143;28;20398;-68
2022/03/22 08:15:32;;;;;;;31.07;16.90;;;;;;;;;;5036275;28;20438;-66
2022/03/22 08:17:59;;;;;;;22.50;15.27;;;;;;;;;;5036228;28;20413;-70
2022/03/22 08:20:27;;;;;;;28.83;16.03;;;;;;;;;;5035940;28;20949;-71
2022/03/22 08:23:03;;;;;;;22.93;14.87;;;;;;;;;;5036092;28;20512;-68
2022/03/22 08:25:37;;;;;;;25.60;16.10;;;;;;;;;;5035903;28;20764;-70
2022/03/22 08:28:04;;;;;;;27.63;15.70;;;;;;;;;;5036040;28;20410;-71
2022/03/22 08:30:30;;;;;;;27.90;16.57;;;;;;;;;;5034669;28;20426;-69
2022/03/22 08:33:00;;;;;;;24.97;16.70;;;;;;;;;;5035771;28;20402;-69
2022/03/22 08:35:28;;;;;;;29.13;17.10;;;;;;;;;;5035746;28;20406;-69
2022/03/22 08:37:54;;;;;;;23.37;14.90;;;;;;;;;;5035943;28;20405;-69
2022/03/22 08:40:21;;;;;;;28.60;16.37;;;;;;;;;;5035712;28;20470;-73
2022/03/22 08:42:48;;;;;;;25.33;16.53;;;;;;;;;;5035851;28;20437;-68
2022/03/22 08:45:15;;;;;;;24.33;14.47;;;;;;;;;;5035640;28;20759;-70
2022/03/22 08:47:42;;;;;;;26.53;15.90;;;;;;;;;;5035582;28;20410;-69
2022/03/22 08:50:11;;;;;;;25.60;15.60;;;;;;;;;;5035623;28;20512;-69
2022/03/22 08:52:38;;;;;;;25.20;15.60;;;;;;;;;;5035447;28;20790;-68
2022/03/22 08:55:05;;;;;;;26.97;16.17;;;;;;;;;;5035401;28;20408;-69
2022/03/22 08:57:31;;;;;;;24.60;14.40;;;;;;;;;;5035422;28;20893;-66
2022/03/22 08:59:58;;;;;;;27.80;16.27;;;;;;;;;;5035309;28;20469;-66
2022/03/22 09:02:24;;;;;;;23.57;16.23;;;;;;;;;;5035276;28;20501;-66
2022/03/22 09:07:34;;;;;;;30.53;16.47;;;;;;;;;;5034590;28;20528;-67
2022/03/22 09:10:00;;;;;;;26.33;16.00;;;;;;;;;;5033805;28;20482;-67
2022/03/22 09:12:26;;;;;;;29.10;17.20;;;;;;;;;;5035154;28;20817;-66
2022/03/22 09:14:53;;;;;;;27.27;16.63;;;;;;;;;;5035028;28;20828;-65
2022/03/22 09:17:20;;;;;;;26.80;15.53;;;;;;;;;;5035194;28;20893;-66
2022/03/22 09:19:46;;;;;;;23.70;16.03;;;;;;;;;;5034916;28;20470;-71
2022/03/22 09:22:12;;;;;;;25.07;16.33;;;;;;;;;;5035008;28;20441;-68
2022/03/22 09:24:38;;;;;;;25.50;16.63;;;;;;;;;;5034883;28;20406;-71
2022/03/22 09:27:04;;;;;;;25.50;16.73;;;;;;;;;;5035090;28;20463;-69
2022/03/22 09:29:30;;;;;;;26.13;16.93;;;;;;;;;;5034790;28;20402;-70
2022/03/22 09:31:56;;;;;;;28.00;16.10;;;;;;;;;;5034708;28;20513;-69
2022/03/22 09:34:24;;;;;;;22.97;16.40;;;;;;;;;;5033458;28;20818;-68
2022/03/22 09:36:51;;;;;;;24.90;16.43;;;;;;;;;;5034890;28;20403;-71
2022/03/22 09:39:19;;;;;;;26.60;17.40;;;;;;;;;;5033216;28;20485;-67
2022/03/22 09:41:45;;;;;;;24.73;16.90;;;;;;;;;;5033188;28;20426;-68
2022/03/22 09:44:11;;;;;;;24.03;16.63;;;;;;;;;;5034100;28;20419;-65
2022/03/22 09:46:37;;;;;;;32.27;16.90;;;;;;;;;;5034283;28;20414;-68
2022/03/22 09:49:03;;;;;;;27.10;16.60;;;;;;;;;;5034584;28;20936;-69
2022/03/22 09:51:45;;;;;;;29.73;17.03;;;;;;;;;;5034289;28;20391;-70
2022/03/22 09:54:12;;;;;;;25.97;17.07;;;;;;;;;;5034334;28;20399;-70
2022/03/22 09:56:39;;;;;;;24.63;15.70;;;;;;;;;;5034418;28;20415;-71
2022/03/22 09:59:05;;;;;;;29.60;17.57;;;;;;;;;;5034395;28;20830;-70
2022/03/22 10:01:32;;;;;;;30.50;17.50;;;;;;;;;;5034215;28;20414;-70
2022/03/22 10:04:00;;;;;;;29.17;17.60;;;;;;;;;;5034124;28;20403;-67
2022/03/22 10:06:27;;;;;;;33.10;17.60;;;;;;;;;;5034255;28;20417;-68
2022/03/22 10:08:53;;;;;;;37.07;18.70;;;;;;;;;;5032827;28;20906;-70
2022/03/22 10:11:20;;;;;;;27.77;18.13;;;;;;;;;;5034097;28;20413;-67
2022/03/22 10:13:53;;;;;;;27.87;17.70;;;;;;;;;;5034468;28;20418;-71
2022/03/22 10:16:19;;;;;;;33.57;17.37;;;;;;;;;;5033967;28;20407;-68
2022/03/22 10:18:45;;;;;;;28.13;17.23;;;;;;;;;;5033065;28;20505;-68
2022/03/22 10:21:11;;;;;;;26.67;17.13;;;;;;;;;;5034086;28;20447;-70
2022/03/22 10:23:53;;;;;;;28.27;17.20;;;;;;;;;;5033948;28;20814;-69
2022/03/22 10:26:19;;;;;;;25.13;16.20;;;;;;;;;;5033661;28;20437;-68
2022/03/22 10:28:52;;;;;;;25.83;17.60;;;;;;;;;;5033790;28;20928;-68
2022/03/22 10:31:19;;;;;;;24.63;16.37;;;;;;;;;;5033670;28;20406;-71
2022/03/22 10:33:52;;;;;;;27.07;17.80;;;;;;;;;;5033720;28;20425;-70
2022/03/22 10:36:21;;;;;;;30.63;16.53;;;;;;;;;;5033583;28;20497;-71
2022/03/22 10:38:57;;;;;;;25.30;16.00;;;;;;;;;;5033506;28;20470;-71
2022/03/22 10:41:24;;;;;;;29.80;16.13;;;;;;;;;;5033701;28;20505;-67
2022/03/22 10:44:00;;;;;;;24.60;16.10;;;;;;;;;;5033512;28;20487;-70
2022/03/22 10:46:28;;;;;;;26.03;16.00;;;;;;;;;;5033474;28;20414;-69
2022/03/22 10:49:00;;;;;;;33.53;17.30;;;;;;;;;;5033525;28;20429;-70
2022/03/22 10:51:32;;;;;;;25.70;16.67;;;;;;;;;;5033399;28;20402;-70
2022/03/22 10:53:58;;;;;;;26.07;16.30;;;;;;;;;;5033371;28;20424;-67
2022/03/22 10:56:25;;;;;;;23.93;16.70;;;;;;;;;;5033408;28;20424;-70
2022/03/22 10:58:51;;;;;;;26.47;16.17;;;;;;;;;;5033264;28;20462;-71
2022/03/22 11:01:19;;;;;;;28.57;15.80;;;;;;;;;;5033331;28;20441;-69
2022/03/22 11:03:46;;;;;;;27.47;16.43;;;;;;;;;;5033235;28;20501;-68
2022/03/22 11:06:12;;;;;;;26.07;16.17;;;;;;;;;;5031965;28;20426;-66
2022/03/22 11:08:40;;;;;;;24.83;16.47;;;;;;;;;;5033436;28;20473;-66
2022/03/22 11:11:07;;;;;;;29.27;16.50;;;;;;;;;;5033072;28;20409;-69
2022/03/22 11:13:33;;;;;;;21.33;15.53;;;;;;;;;;5033280;28;20925;-70
2022/03/22 11:16:00;;;;;;;24.83;16.47;;;;;;;;;;5033092;28;20464;-70
2022/03/22 11:18:28;;;;;;;22.83;15.33;;;;;;;;;;5033051;28;20433;-69
2022/03/22 11:20:58;;;;;;;24.67;15.87;;;;;;;;;;5031884;28;20427;-69
2022/03/22 11:23:25;;;;;;;26.07;16.40;;;;;;;;;;5033092;28;20414;-68
2022/03/22 11:25:52;;;;;;;21.83;15.00;;;;;;;;;;5032984;28;20462;-70
2022/03/22 11:28:19;;;;;;;25.67;15.27;;;;;;;;;;5032862;28;20453;-69
2022/03/22 11:30:46;;;;;;;22.50;15.50;;;;;;;;;;5035747;28;20800;-70
2022/03/22 11:36:00;;;;;;;25.63;17.40;;;;;;;;;;5037250;28;20445;-68
2022/03/22 11:38:39;;;;;;;21.10;16.27;;;;;;;;;;5037004;28;20418;-69
2022/03/22 11:43:50;;;;;;;26.33;16.83;;;;;;;;;;5036835;28;20402;-69
2022/03/22 11:46:16;;;;;;;24.97;15.83;;;;;;;;;;5036759;28;20468;-70
2022/03/22 11:48:42;;;;;;;22.03;16.30;;;;;;;;;;5036788;28;20406;-69
2022/03/22 11:51:09;;;;;;;26.63;16.40;;;;;;;;;;5036605;28;20564;-67
2022/03/22 11:53:42;;;;;;;23.43;15.73;;;;;;;;;;5036616;28;20406;-65
2022/03/22 11:56:09;;;;;;;28.67;17.30;;;;;;;;;;5036379;28;20882;-67
2022/03/22 11:58:35;;;;;;;23.10;15.77;;;;;;;;;;5036434;28;20537;-69
2022/03/22 12:01:03;;;;;;;22.67;15.63;;;;;;;;;;5036342;28;20411;-67
2022/03/22 12:03:32;;;;;;;23.73;15.33;;;;;;;;;;5036765;28;20394;-66
2022/03/22 12:06:09;;;;;;;26.93;16.13;;;;;;;;;;5036513;28;20414;-69
2022/03/22 12:08:36;;;;;;;22.00;16.37;;;;;;;;;;5036213;28;20466;-71
2022/03/22 12:11:02;;;;;;;24.67;16.10;;;;;;;;;;5036216;28;20403;-70
2022/03/22 12:13:30;;;;;;;21.60;16.40;;;;;;;;;;5036403;28;20449;-70
2022/03/22 12:15:57;;;;;;;23.73;16.47;;;;;;;;;;5036180;28;20746;-69
2022/03/22 12:18:27;;;;;;;23.73;15.73;;;;;;;;;;5034848;28;20421;-68
2022/03/22 12:20:56;;;;;;;23.97;16.07;;;;;;;;;;5036194;28;20828;-71
2022/03/22 12:23:22;;;;;;;21.37;15.77;;;;;;;;;;5036071;28;20464;-70
2022/03/22 12:25:48;;;;;;;23.47;16.03;;;;;;;;;;5036001;28;20410;-68
2022/03/22 12:28:16;;;;;;;22.30;14.90;;;;;;;;;;5034743;28;20410;-69
2022/03/22 12:30:42;;;;;;;22.10;14.20;;;;;;;;;;5035842;28;20403;-70
2022/03/22 12:33:15;;;;;;;26.17;16.67;;;;;;;;;;5035816;28;20430;-69
2022/03/22 12:35:42;;;;;;;20.93;14.40;;;;;;;;;;5035864;28;20478;-68
2022/03/22 12:38:08;;;;;;;21.53;15.27;;;;;;;;;;5035726;28;20402;-70
2022/03/22 12:40:35;;;;;;;23.60;16.00;;;;;;;;;;5034029;28;20458;-68
2022/03/22 12:43:02;;;;;;;26.00;16.47;;;;;;;;;;5035126;28;20410;-68
2022/03/22 12:45:29;;;;;;;27.73;15.90;;;;;;;;;;5035734;28;20407;-68
2022/03/22 12:47:56;;;;;;;21.57;15.07;;;;;;;;;;5035641;28;20407;-69
2022/03/22 12:50:23;;;;;;;22.00;15.90;;;;;;;;;;5035606;28;20415;-71
2022/03/22 12:52:52;;;;;;;25.57;15.60;;;;;;;;;;5035419;28;20411;-69
2022/03/22 12:55:20;;;;;;;24.53;14.70;;;;;;;;;;5035486;28;20450;-68
2022/03/22 12:57:48;;;;;;;24.70;16.43;;;;;;;;;;5035515;28;20410;-65
2022/03/22 13:00:33;;;;;;;23.80;16.60;;;;;;;;;;5035338;28;20953;-66
2022/03/22 13:03:06;;;;;;;20.00;15.37;;;;;;;;;;5035575;28;20788;-69
2022/03/22 13:05:32;;;;;;;22.53;15.23;;;;;;;;;;5035340;28;20469;-70
2022/03/22 13:07:58;;;;;;;20.80;15.57;;;;;;;;;;5035139;28;20449;-72
2022/03/22 13:13:16;;;;;;;28.20;15.50;;;;;;;;;;5035560;28;20422;-70
2022/03/22 13:15:47;;;;;;;24.50;15.37;;;;;;;;;;5035493;28;20410;-70
2022/03/22 13:18:13;;;;;;;24.07;15.77;;;;;;;;;;5035402;28;20866;-68
2022/03/22 13:20:40;;;;;;;26.00;16.03;;;;;;;;;;5035159;28;20418;-70
2022/03/22 13:23:09;;;;;;;21.53;14.10;;;;;;;;;;5034950;28;20421;-69
2022/03/22 13:25:40;;;;;;;25.63;15.30;;;;;;;;;;5034916;28;20403;-70
2022/03/22 13:28:14;;;;;;;20.37;14.53;;;;;;;;;;5034886;28;20414;-68
2022/03/22 13:30:44;;;;;;;21.70;14.97;;;;;;;;;;5033460;28;20509;-68
2022/03/22 13:33:14;;;;;;;20.00;15.80;;;;;;;;;;5034843;28;20764;-69
2022/03/22 13:35:51;;;;;;;21.20;15.27;;;;;;;;;;5034841;28;20406;-71
2022/03/22 13:38:17;;;;;;;18.00;14.20;;;;;;;;;;5034665;28;20929;-69
2022/03/22 13:40:44;;;;;;;21.63;14.37;;;;;;;;;;5034645;28;20518;-69
2022/03/22 13:43:11;;;;;;;19.07;13.80;;;;;;;;;;5034641;28;20900;-68
2022/03/22 13:45:41;;;;;;;23.20;15.20;;;;;;;;;;5034583;28;20501;-69
2022/03/22 13:48:12;;;;;;;21.40;14.50;;;;;;;;;;5034552;28;20441;-69
2022/03/22 13:50:38;;;;;;;22.23;14.67;;;;;;;;;;5034290;28;20410;-69
2022/03/22 13:53:05;;;;;;;21.20;13.87;;;;;;;;;;5034176;28;20413;-66
2022/03/22 13:55:31;;;;;;;21.70;14.63;;;;;;;;;;5034482;28;20465;-66
2022/03/22 13:57:59;;;;;;;23.00;14.73;;;;;;;;;;5034342;28;20510;-66
2022/03/22 14:00:25;;;;;;;23.33;14.20;;;;;;;;;;5034185;28;20528;-64
2022/03/22 14:02:52;;;;;;;22.37;14.17;;;;;;;;;;5034220;28;20906;-65
2022/03/22 14:05:18;;;;;;;23.20;13.13;;;;;;;;;;5034147;28;20773;-66
2022/03/22 14:07:54;;;;;;;19.40;13.53;;;;;;;;;;5033979;28;20454;-65
2022/03/22 14:10:20;;;;;;;19.90;14.10;;;;;;;;;;5034040;28;20438;-70
2022/03/22 14:12:46;;;;;;;19.80;13.83;;;;;;;;;;5034134;28;20411;-66
2022/03/22 14:15:13;;;;;;;18.97;13.80;;;;;;;;;;5033974;28;20414;-67
2022/03/22 14:17:39;;;;;;;20.23;14.83;;;;;;;;;;5034071;28;20485;-67
2022/03/22 14:20:06;;;;;;;19.37;13.83;;;;;;;;;;5033996;28;20465;-66
2022/03/22 14:22:32;;;;;;;22.93;14.63;;;;;;;;;;5033931;28;20407;-67
2022/03/22 14:24:58;;;;;;;20.90;13.77;;;;;;;;;;5033838;28;20405;-67
2022/03/22 14:27:24;;;;;;;17.50;13.60;;;;;;;;;;5033758;28;20762;-65
2022/03/22 14:29:52;;;;;;;23.83;14.40;;;;;;;;;;5033776;28;20399;-67
2022/03/22 14:32:18;;;;;;;22.80;14.43;;;;;;;;;;5033757;28;20449;-66
2022/03/22 14:37:29;;;;;;;19.17;14.47;;;;;;;;;;5033686;28;20410;-67
2022/03/22 14:39:55;;;;;;;20.53;14.97;;;;;;;;;;5032207;28;20868;-65
2022/03/22 14:42:23;;;;;;;21.70;15.17;;;;;;;;;;5033470;28;20421;-65
2022/03/22 14:44:49;;;;;;;17.70;13.20;;;;;;;;;;5033392;28;20418;-66
2022/03/22 14:47:15;;;;;;;21.63;14.47;;;;;;;;;;5033530;28;20407;-67
2022/03/22 14:49:41;;;;;;;19.93;15.33;;;;;;;;;;5033393;28;20434;-65
2022/03/22 14:54:52;;;;;;;22.93;15.60;;;;;;;;;;5033367;28;20421;-66
2022/03/22 15:00:03;;;;;;;23.70;15.20;;;;;;;;;;5033358;28;20480;-67